sensor_id;sensor_type;location;lat;lon;timestamp;temperature;humidity
67502;SHT30;54349;52.528;19.760;2023-03-23T00:01:20;24.69;43.34
67502;SHT30;54349;52.528;19.760;2023-03-23T00:03:49;24.69;43.30
67502;SHT30;54349;52.528;19.760;2023-03-23T00:06:19;24.69;43.27
67502;SHT30;54349;52.528;19.760;2023-03-23T00:08:48;24.70;43.24
67502;SHT30;54349;52.528;19.760;2023-03-23T00:11:24;24.69;43.24
67502;SHT30;54349;52.528;19.760;2023-03-23T00:13:58;24.69;43.22
67502;SHT30;54349;52.528;19.760;2023-03-23T00:16:30;24.70;43.25
67502;SHT30;54349;52.528;19.760;2023-03-23T00:19:01;24.70;43.28
67502;SHT30;54349;52.528;19.760;2023-03-23T00:21:35;24.70;43.20
67502;SHT30;54349;52.528;19.760;2023-03-23T00:24:06;24.70;43.20
67502;SHT30;54349;52.528;19.760;2023-03-23T00:26:46;24.71;43.18
67502;SHT30;54349;52.528;19.760;2023-03-23T00:29:17;24.72;43.39
67502;SHT30;54349;52.528;19.760;2023-03-23T00:31:50;24.70;43.10
67502;SHT30;54349;52.528;19.760;2023-03-23T00:34:19;24.67;42.91
67502;SHT30;54349;52.528;19.760;2023-03-23T00:36:51;24.64;42.81
67502;SHT30;54349;52.528;19.760;2023-03-23T00:39:23;24.60;42.74
67502;SHT30;54349;52.528;19.760;2023-03-23T00:41:53;24.57;42.66
67502;SHT30;54349;52.528;19.760;2023-03-23T00:44:27;24.53;42.59
67502;SHT30;54349;52.528;19.760;2023-03-23T00:46:57;24.51;42.52
67502;SHT30;54349;52.528;19.760;2023-03-23T00:49:25;24.48;42.48
67502;SHT30;54349;52.528;19.760;2023-03-23T00:51:57;24.44;42.41
67502;SHT30;54349;52.528;19.760;2023-03-23T00:54:26;24.42;42.32
67502;SHT30;54349;52.528;19.760;2023-03-23T00:56:54;24.40;42.31
67502;SHT30;54349;52.528;19.760;2023-03-23T00:59:22;24.36;42.23
67502;SHT30;54349;52.528;19.760;2023-03-23T01:01:51;24.34;42.19
67502;SHT30;54349;52.528;19.760;2023-03-23T01:04:19;24.31;42.12
67502;SHT30;54349;52.528;19.760;2023-03-23T01:06:48;24.28;42.08
67502;SHT30;54349;52.528;19.760;2023-03-23T01:09:20;24.26;42.08
67502;SHT30;54349;52.528;19.760;2023-03-23T01:11:50;24.24;41.99
67502;SHT30;54349;52.528;19.760;2023-03-23T01:14:21;24.22;41.96
67502;SHT30;54349;52.528;19.760;2023-03-23T01:16:50;24.20;41.89
67502;SHT30;54349;52.528;19.760;2023-03-23T01:19:18;24.17;41.86
67502;SHT30;54349;52.528;19.760;2023-03-23T01:21:45;24.15;41.81
67502;SHT30;54349;52.528;19.760;2023-03-23T01:24:12;24.14;41.77
67502;SHT30;54349;52.528;19.760;2023-03-23T01:26:39;24.10;41.72
67502;SHT30;54349;52.528;19.760;2023-03-23T01:29:06;24.08;41.69
67502;SHT30;54349;52.528;19.760;2023-03-23T01:31:34;24.06;41.66
67502;SHT30;54349;52.528;19.760;2023-03-23T01:34:03;24.02;41.60
67502;SHT30;54349;52.528;19.760;2023-03-23T01:36:31;24.01;41.59
67502;SHT30;54349;52.528;19.760;2023-03-23T01:39:03;23.99;41.54
67502;SHT30;54349;52.528;19.760;2023-03-23T01:41:33;23.97;41.50
67502;SHT30;54349;52.528;19.760;2023-03-23T01:45:17;23.95;41.44
67502;SHT30;54349;52.528;19.760;2023-03-23T01:47:17;23.92;41.40
67502;SHT30;54349;52.528;19.760;2023-03-23T01:49:51;23.89;41.35
67502;SHT30;54349;52.528;19.760;2023-03-23T01:52:26;23.87;41.33
67502;SHT30;54349;52.528;19.760;2023-03-23T01:55:00;23.84;41.31
67502;SHT30;54349;52.528;19.760;2023-03-23T01:57:29;23.83;41.30
67502;SHT30;54349;52.528;19.760;2023-03-23T02:00:01;23.80;41.22
67502;SHT30;54349;52.528;19.760;2023-03-23T02:02:45;23.77;41.20
67502;SHT30;54349;52.528;19.760;2023-03-23T02:05:19;23.75;41.20
67502;SHT30;54349;52.528;19.760;2023-03-23T02:07:56;23.72;41.19
67502;SHT30;54349;52.528;19.760;2023-03-23T02:10:32;23.71;41.18
67502;SHT30;54349;52.528;19.760;2023-03-23T02:13:00;23.69;41.12
67502;SHT30;54349;52.528;19.760;2023-03-23T02:15:34;23.67;41.12
67502;SHT30;54349;52.528;19.760;2023-03-23T02:18:17;23.64;41.11
67502;SHT30;54349;52.528;19.760;2023-03-23T02:35:52;23.48;41.03
67502;SHT30;54349;52.528;19.760;2023-03-23T02:39:01;23.46;41.04
67502;SHT30;54349;52.528;19.760;2023-03-23T02:42:02;23.44;41.02
67502;SHT30;54349;52.528;19.760;2023-03-23T02:44:34;23.41;41.02
67502;SHT30;54349;52.528;19.760;2023-03-23T02:47:08;23.39;41.02
67502;SHT30;54349;52.528;19.760;2023-03-23T02:49:53;23.37;41.05
67502;SHT30;54349;52.528;19.760;2023-03-23T02:52:29;23.35;41.03
67502;SHT30;54349;52.528;19.760;2023-03-23T02:54:59;23.33;40.99
67502;SHT30;54349;52.528;19.760;2023-03-23T02:57:28;23.32;40.99
67502;SHT30;54349;52.528;19.760;2023-03-23T02:59:58;23.29;41.00
67502;SHT30;54349;52.528;19.760;2023-03-23T03:02:29;23.28;41.00
67502;SHT30;54349;52.528;19.760;2023-03-23T03:10:59;23.23;40.91
67502;SHT30;54349;52.528;19.760;2023-03-23T03:16:10;23.18;40.91
67502;SHT30;54349;52.528;19.760;2023-03-23T03:21:43;23.14;40.93
67502;SHT30;54349;52.528;19.760;2023-03-23T03:24:17;23.12;40.92
67502;SHT30;54349;52.528;19.760;2023-03-23T03:26:51;23.12;40.90
67502;SHT30;54349;52.528;19.760;2023-03-23T03:29:38;23.10;40.92
67502;SHT30;54349;52.528;19.760;2023-03-23T03:32:08;23.08;40.92
67502;SHT30;54349;52.528;19.760;2023-03-23T03:34:42;23.08;40.92
67502;SHT30;54349;52.528;19.760;2023-03-23T03:37:10;23.06;40.89
67502;SHT30;54349;52.528;19.760;2023-03-23T03:39:39;23.05;40.88
67502;SHT30;54349;52.528;19.760;2023-03-23T03:42:06;23.03;40.89
67502;SHT30;54349;52.528;19.760;2023-03-23T03:44:33;23.01;40.90
67502;SHT30;54349;52.528;19.760;2023-03-23T03:47:01;23.01;40.89
67502;SHT30;54349;52.528;19.760;2023-03-23T03:49:29;22.99;40.86
67502;SHT30;54349;52.528;19.760;2023-03-23T03:51:57;22.98;40.85
67502;SHT30;54349;52.528;19.760;2023-03-23T03:54:33;22.97;40.86
67502;SHT30;54349;52.528;19.760;2023-03-23T03:57:00;22.95;40.82
67502;SHT30;54349;52.528;19.760;2023-03-23T03:59:47;22.93;40.81
67502;SHT30;54349;52.528;19.760;2023-03-23T04:02:33;22.92;40.80
67502;SHT30;54349;52.528;19.760;2023-03-23T04:05:00;22.90;40.76
67502;SHT30;54349;52.528;19.760;2023-03-23T04:07:31;22.88;40.75
67502;SHT30;54349;52.528;19.760;2023-03-23T04:09:58;22.86;40.71
67502;SHT30;54349;52.528;19.760;2023-03-23T04:12:25;22.84;40.73
67502;SHT30;54349;52.528;19.760;2023-03-23T04:14:55;22.83;40.70
67502;SHT30;54349;52.528;19.760;2023-03-23T04:17:27;22.81;40.70
67502;SHT30;54349;52.528;19.760;2023-03-23T04:19:54;22.79;40.68
67502;SHT30;54349;52.528;19.760;2023-03-23T04:22:27;22.77;40.69
67502;SHT30;54349;52.528;19.760;2023-03-23T04:24:59;22.75;40.69
67502;SHT30;54349;52.528;19.760;2023-03-23T04:27:32;22.74;40.70
67502;SHT30;54349;52.528;19.760;2023-03-23T04:30:01;22.73;40.70
67502;SHT30;54349;52.528;19.760;2023-03-23T04:32:40;22.72;40.69
67502;SHT30;54349;52.528;19.760;2023-03-23T04:35:10;22.70;40.69
67502;SHT30;54349;52.528;19.760;2023-03-23T04:38:00;22.67;40.65
67502;SHT30;54349;52.528;19.760;2023-03-23T04:40:27;22.66;40.62
67502;SHT30;54349;52.528;19.760;2023-03-23T04:43:02;22.70;40.55
67502;SHT30;54349;52.528;19.760;2023-03-23T04:45:54;22.78;40.38
67502;SHT30;54349;52.528;19.760;2023-03-23T04:48:23;22.86;40.26
67502;SHT30;54349;52.528;19.760;2023-03-23T04:51:05;22.90;40.20
67502;SHT30;54349;52.528;19.760;2023-03-23T04:53:33;22.92;40.14
67502;SHT30;54349;52.528;19.760;2023-03-23T04:56:00;22.98;40.06
67502;SHT30;54349;52.528;19.760;2023-03-23T04:58:32;23.06;39.92
67502;SHT30;54349;52.528;19.760;2023-03-23T05:01:22;23.14;39.79
67502;SHT30;54349;52.528;19.760;2023-03-23T05:04:08;23.22;39.72
67502;SHT30;54349;52.528;19.760;2023-03-23T05:06:35;23.28;39.68
67502;SHT30;54349;52.528;19.760;2023-03-23T05:09:07;23.32;39.58
67502;SHT30;54349;52.528;19.760;2023-03-23T05:11:34;23.33;39.59
67502;SHT30;54349;52.528;19.760;2023-03-23T05:14:03;23.32;39.60
67502;SHT30;54349;52.528;19.760;2023-03-23T05:16:31;23.32;39.59
67502;SHT30;54349;52.528;19.760;2023-03-23T05:18:59;23.33;39.51
67502;SHT30;54349;52.528;19.760;2023-03-23T05:21:27;23.36;39.50
67502;SHT30;54349;52.528;19.760;2023-03-23T05:23:54;23.38;39.50
67502;SHT30;54349;52.528;19.760;2023-03-23T05:26:22;23.36;39.51
67502;SHT30;54349;52.528;19.760;2023-03-23T05:28:58;23.34;39.56
67502;SHT30;54349;52.528;19.760;2023-03-23T05:31:38;23.31;39.57
67502;SHT30;54349;52.528;19.760;2023-03-23T05:34:06;23.29;39.61
67502;SHT30;54349;52.528;19.760;2023-03-23T05:36:45;23.30;39.61
67502;SHT30;54349;52.528;19.760;2023-03-23T05:39:24;23.28;39.64
67502;SHT30;54349;52.528;19.760;2023-03-23T05:42:07;23.26;39.63
67502;SHT30;54349;52.528;19.760;2023-03-23T05:44:44;23.24;39.70
67502;SHT30;54349;52.528;19.760;2023-03-23T05:47:12;23.22;39.72
67502;SHT30;54349;52.528;19.760;2023-03-23T05:49:41;23.20;39.74
67502;SHT30;54349;52.528;19.760;2023-03-23T05:52:10;23.19;39.79
67502;SHT30;54349;52.528;19.760;2023-03-23T05:54:37;23.16;39.78
67502;SHT30;54349;52.528;19.760;2023-03-23T05:57:04;23.13;39.80
67502;SHT30;54349;52.528;19.760;2023-03-23T05:59:41;23.11;39.88
67502;SHT30;54349;52.528;19.760;2023-03-23T06:02:13;23.09;39.91
67502;SHT30;54349;52.528;19.760;2023-03-23T06:04:41;23.07;39.97
67502;SHT30;54349;52.528;19.760;2023-03-23T06:07:20;23.05;40.01
67502;SHT30;54349;52.528;19.760;2023-03-23T06:10:08;23.02;40.03
67502;SHT30;54349;52.528;19.760;2023-03-23T06:12:38;23.00;40.10
67502;SHT30;54349;52.528;19.760;2023-03-23T06:15:25;22.94;40.11
67502;SHT30;54349;52.528;19.760;2023-03-23T06:18:14;22.93;40.19
67502;SHT30;54349;52.528;19.760;2023-03-23T06:21:05;22.91;40.21
67502;SHT30;54349;52.528;19.760;2023-03-23T06:24:00;22.88;40.25
67502;SHT30;54349;52.528;19.760;2023-03-23T06:26:36;22.88;40.24
67502;SHT30;54349;52.528;19.760;2023-03-23T06:29:08;22.88;40.26
67502;SHT30;54349;52.528;19.760;2023-03-23T06:31:46;22.88;40.30
67502;SHT30;54349;52.528;19.760;2023-03-23T06:34:18;22.86;40.34
67502;SHT30;54349;52.528;19.760;2023-03-23T06:37:15;22.83;40.32
67502;SHT30;54349;52.528;19.760;2023-03-23T06:40:05;22.82;40.32
67502;SHT30;54349;52.528;19.760;2023-03-23T06:42:39;22.81;40.43
67502;SHT30;54349;52.528;19.760;2023-03-23T06:45:25;22.84;40.74
67502;SHT30;54349;52.528;19.760;2023-03-23T06:48:11;22.88;41.09
67502;SHT30;54349;52.528;19.760;2023-03-23T06:50:41;22.94;41.61
67502;SHT30;54349;52.528;19.760;2023-03-23T06:53:14;22.99;41.92
67502;SHT30;54349;52.528;19.760;2023-03-23T06:55:44;23.04;42.34
67502;SHT30;54349;52.528;19.760;2023-03-23T06:58:12;23.09;42.77
67502;SHT30;54349;52.528;19.760;2023-03-23T07:00:39;23.14;43.50
67502;SHT30;54349;52.528;19.760;2023-03-23T07:03:08;23.20;43.92
67502;SHT30;54349;52.528;19.760;2023-03-23T07:05:37;23.25;44.63
67502;SHT30;54349;52.528;19.760;2023-03-23T07:08:04;23.29;44.93
67502;SHT30;54349;52.528;19.760;2023-03-23T07:10:39;23.33;45.05
67502;SHT30;54349;52.528;19.760;2023-03-23T07:13:09;23.38;45.08
67502;SHT30;54349;52.528;19.760;2023-03-23T07:15:48;23.41;45.04
67502;SHT30;54349;52.528;19.760;2023-03-23T07:18:17;23.44;44.96
67502;SHT30;54349;52.528;19.760;2023-03-23T07:20:47;23.48;44.90
67502;SHT30;54349;52.528;19.760;2023-03-23T07:23:20;23.51;45.01
67502;SHT30;54349;52.528;19.760;2023-03-23T07:25:56;23.55;45.19
67502;SHT30;54349;52.528;19.760;2023-03-23T07:28:29;23.58;45.30
67502;SHT30;54349;52.528;19.760;2023-03-23T07:31:01;23.61;45.21
67502;SHT30;54349;52.528;19.760;2023-03-23T07:33:29;23.65;45.29
67502;SHT30;54349;52.528;19.760;2023-03-23T07:35:59;23.69;45.27
67502;SHT30;54349;52.528;19.760;2023-03-23T07:38:30;23.72;45.41
67502;SHT30;54349;52.528;19.760;2023-03-23T07:40:59;23.76;45.49
67502;SHT30;54349;52.528;19.760;2023-03-23T07:43:27;23.78;45.55
67502;SHT30;54349;52.528;19.760;2023-03-23T07:46:15;23.82;45.63
67502;SHT30;54349;52.528;19.760;2023-03-23T07:48:58;23.86;45.63
67502;SHT30;54349;52.528;19.760;2023-03-23T07:51:33;23.90;45.59
67502;SHT30;54349;52.528;19.760;2023-03-23T07:54:02;23.93;45.55
67502;SHT30;54349;52.528;19.760;2023-03-23T07:56:47;23.96;45.46
67502;SHT30;54349;52.528;19.760;2023-03-23T07:59:22;23.98;45.51
67502;SHT30;54349;52.528;19.760;2023-03-23T08:01:52;24.01;45.38
67502;SHT30;54349;52.528;19.760;2023-03-23T08:04:43;24.06;45.27
67502;SHT30;54349;52.528;19.760;2023-03-23T08:07:29;24.08;45.22
67502;SHT30;54349;52.528;19.760;2023-03-23T08:10:06;24.13;45.10
67502;SHT30;54349;52.528;19.760;2023-03-23T08:12:55;24.17;45.03
67502;SHT30;54349;52.528;19.760;2023-03-23T08:15:42;24.20;45.06
67502;SHT30;54349;52.528;19.760;2023-03-23T08:18:11;24.24;44.94
67502;SHT30;54349;52.528;19.760;2023-03-23T08:20:57;24.27;44.85
67502;SHT30;54349;52.528;19.760;2023-03-23T08:23:32;24.30;44.77
67502;SHT30;54349;52.528;19.760;2023-03-23T08:26:18;24.33;44.69
67502;SHT30;54349;52.528;19.760;2023-03-23T08:29:05;24.35;44.59
67502;SHT30;54349;52.528;19.760;2023-03-23T08:32:06;24.38;44.46
67502;SHT30;54349;52.528;19.760;2023-03-23T08:34:55;24.40;44.51
67502;SHT30;54349;52.528;19.760;2023-03-23T08:37:22;24.43;44.68
67502;SHT30;54349;52.528;19.760;2023-03-23T08:40:01;24.46;44.89
67502;SHT30;54349;52.528;19.760;2023-03-23T08:43:01;24.50;45.00
67502;SHT30;54349;52.528;19.760;2023-03-23T08:45:47;24.54;45.07
67502;SHT30;54349;52.528;19.760;2023-03-23T08:48:14;24.56;45.10
67502;SHT30;54349;52.528;19.760;2023-03-23T08:50:56;24.59;45.07
67502;SHT30;54349;52.528;19.760;2023-03-23T08:53:42;24.62;44.84
67502;SHT30;54349;52.528;19.760;2023-03-23T08:56:34;24.64;44.84
67502;SHT30;54349;52.528;19.760;2023-03-23T08:59:01;24.67;44.67
67502;SHT30;54349;52.528;19.760;2023-03-23T09:01:51;24.71;44.50
67502;SHT30;54349;52.528;19.760;2023-03-23T09:04:22;24.72;44.44
67502;SHT30;54349;52.528;19.760;2023-03-23T09:06:50;24.75;44.32
67502;SHT30;54349;52.528;19.760;2023-03-23T09:09:17;24.76;44.27
67502;SHT30;54349;52.528;19.760;2023-03-23T09:11:44;24.80;44.21
67502;SHT30;54349;52.528;19.760;2023-03-23T09:14:11;24.82;44.26
67502;SHT30;54349;52.528;19.760;2023-03-23T09:16:39;24.83;44.25
67502;SHT30;54349;52.528;19.760;2023-03-23T09:19:06;24.85;44.20
67502;SHT30;54349;52.528;19.760;2023-03-23T09:21:35;24.87;44.08
67502;SHT30;54349;52.528;19.760;2023-03-23T09:24:02;24.89;43.81
67502;SHT30;54349;52.528;19.760;2023-03-23T09:26:31;24.92;43.85
67502;SHT30;54349;52.528;19.760;2023-03-23T09:28:58;24.94;43.91
67502;SHT30;54349;52.528;19.760;2023-03-23T09:31:25;24.97;43.92
67502;SHT30;54349;52.528;19.760;2023-03-23T09:33:54;24.99;43.87
67502;SHT30;54349;52.528;19.760;2023-03-23T09:36:23;25.01;43.55
67502;SHT30;54349;52.528;19.760;2023-03-23T09:38:52;25.05;43.41
67502;SHT30;54349;52.528;19.760;2023-03-23T09:45:06;25.09;43.64
67502;SHT30;54349;52.528;19.760;2023-03-23T09:50:21;25.15;43.66
67502;SHT30;54349;52.528;19.760;2023-03-23T09:53:03;25.15;43.12
67502;SHT30;54349;52.528;19.760;2023-03-23T09:55:47;25.18;42.89
67502;SHT30;54349;52.528;19.760;2023-03-23T09:58:17;25.20;43.22
67502;SHT30;54349;52.528;19.760;2023-03-23T10:07:14;25.31;41.96
67502;SHT30;54349;52.528;19.760;2023-03-23T10:09:46;25.35;42.01
67502;SHT30;54349;52.528;19.760;2023-03-23T10:15:18;25.42;42.12
67502;SHT30;54349;52.528;19.760;2023-03-23T10:17:57;25.46;41.79
67502;SHT30;54349;52.528;19.760;2023-03-23T10:20:33;25.48;41.72
67502;SHT30;54349;52.528;19.760;2023-03-23T10:23:24;25.51;41.62
67502;SHT30;54349;52.528;19.760;2023-03-23T10:29:01;25.58;41.94
67502;SHT30;54349;52.528;19.760;2023-03-23T10:31:42;25.60;41.59
67502;SHT30;54349;52.528;19.760;2023-03-23T10:34:20;25.64;41.26
67502;SHT30;54349;52.528;19.760;2023-03-23T10:37:05;25.66;41.07
67502;SHT30;54349;52.528;19.760;2023-03-23T10:39:55;25.70;41.56
67502;SHT30;54349;52.528;19.760;2023-03-23T10:42:29;25.72;41.36
67502;SHT30;54349;52.528;19.760;2023-03-23T10:47:46;25.76;40.62
67502;SHT30;54349;52.528;19.760;2023-03-23T10:50:23;25.78;40.47
67502;SHT30;54349;52.528;19.760;2023-03-23T10:53:00;25.79;40.79
67502;SHT30;54349;52.528;19.760;2023-03-23T10:55:42;25.81;40.50
67502;SHT30;54349;52.528;19.760;2023-03-23T10:58:30;25.84;40.48
67502;SHT30;54349;52.528;19.760;2023-03-23T11:01:03;25.87;41.02
67502;SHT30;54349;52.528;19.760;2023-03-23T11:06:08;25.90;41.17
67502;SHT30;54349;52.528;19.760;2023-03-23T11:08:47;25.92;40.94
67502;SHT30;54349;52.528;19.760;2023-03-23T11:11:31;25.95;41.33
67502;SHT30;54349;52.528;19.760;2023-03-23T11:14:24;25.97;41.22
67502;SHT30;54349;52.528;19.760;2023-03-23T11:16:56;26.00;41.55
67502;SHT30;54349;52.528;19.760;2023-03-23T11:22:08;26.05;42.10
67502;SHT30;54349;52.528;19.760;2023-03-23T11:24:50;26.07;42.04
67502;SHT30;54349;52.528;19.760;2023-03-23T11:27:22;26.10;41.87
67502;SHT30;54349;52.528;19.760;2023-03-23T11:29:56;26.12;41.66
67502;SHT30;54349;52.528;19.760;2023-03-23T11:32:35;26.16;41.26
67502;SHT30;54349;52.528;19.760;2023-03-23T11:35:05;26.19;40.89
67502;SHT30;54349;52.528;19.760;2023-03-23T11:37:46;26.21;41.08
67502;SHT30;54349;52.528;19.760;2023-03-23T11:40:24;26.22;40.81
67502;SHT30;54349;52.528;19.760;2023-03-23T11:43:11;26.23;40.53
67502;SHT30;54349;52.528;19.760;2023-03-23T11:45:52;26.24;40.61
67502;SHT30;54349;52.528;19.760;2023-03-23T11:48:42;26.26;40.62
67502;SHT30;54349;52.528;19.760;2023-03-23T11:51:19;26.25;40.17
67502;SHT30;54349;52.528;19.760;2023-03-23T11:54:12;26.25;40.42
67502;SHT30;54349;52.528;19.760;2023-03-23T11:56:55;26.25;40.48
67502;SHT30;54349;52.528;19.760;2023-03-23T11:59:29;26.24;40.40
67502;SHT30;54349;52.528;19.760;2023-03-23T12:07:56;26.13;39.99
67502;SHT30;54349;52.528;19.760;2023-03-23T12:14:44;26.03;39.70
67502;SHT30;54349;52.528;19.760;2023-03-23T12:17:00;25.99;40.06
67502;SHT30;54349;52.528;19.760;2023-03-23T12:20:04;25.97;39.93
67502;SHT30;54349;52.528;19.760;2023-03-23T12:23:03;25.95;39.81
67502;SHT30;54349;52.528;19.760;2023-03-23T12:28:47;25.93;39.62
67502;SHT30;54349;52.528;19.760;2023-03-23T12:34:24;25.90;39.46
67502;SHT30;54349;52.528;19.760;2023-03-23T12:37:31;25.88;39.71
67502;SHT30;54349;52.528;19.760;2023-03-23T12:43:27;25.88;39.91
67502;SHT30;54349;52.528;19.760;2023-03-23T12:51:26;25.85;40.05
67502;SHT30;54349;52.528;19.760;2023-03-23T12:54:13;25.85;40.07
67502;SHT30;54349;52.528;19.760;2023-03-23T13:02:27;25.86;40.42
67502;SHT30;54349;52.528;19.760;2023-03-23T13:05:12;25.88;40.61
67502;SHT30;54349;52.528;19.760;2023-03-23T13:11:13;25.90;40.92
67502;SHT30;54349;52.528;19.760;2023-03-23T13:13:47;25.91;40.95
67502;SHT30;54349;52.528;19.760;2023-03-23T13:27:24;25.94;41.04
67502;SHT30;54349;52.528;19.760;2023-03-23T13:29:56;25.95;41.10
67502;SHT30;54349;52.528;19.760;2023-03-23T13:32:31;25.94;41.58
67502;SHT30;54349;52.528;19.760;2023-03-23T13:35:13;25.95;41.99
67502;SHT30;54349;52.528;19.760;2023-03-23T13:37:49;25.93;39.48
67502;SHT30;54349;52.528;19.760;2023-03-23T13:40:27;25.87;37.14
67502;SHT30;54349;52.528;19.760;2023-03-23T13:43:01;25.75;36.28
67502;SHT30;54349;52.528;19.760;2023-03-23T13:45:36;25.62;35.61
67502;SHT30;54349;52.528;19.760;2023-03-23T13:50:43;25.27;35.41
67502;SHT30;54349;52.528;19.760;2023-03-23T13:54:04;25.13;35.59
67502;SHT30;54349;52.528;19.760;2023-03-23T13:58:51;24.82;35.46
67502;SHT30;54349;52.528;19.760;2023-03-23T14:01:32;24.66;35.54
67502;SHT30;54349;52.528;19.760;2023-03-23T14:04:15;24.53;35.86
67502;SHT30;54349;52.528;19.760;2023-03-23T14:06:46;24.42;36.21
67502;SHT30;54349;52.528;19.760;2023-03-23T14:09:27;24.35;36.25
67502;SHT30;54349;52.528;19.760;2023-03-23T14:12:01;24.27;36.49
67502;SHT30;54349;52.528;19.760;2023-03-23T14:14:42;24.20;36.48
67502;SHT30;54349;52.528;19.760;2023-03-23T14:17:19;24.10;36.49
67502;SHT30;54349;52.528;19.760;2023-03-23T14:19:52;24.03;36.61
67502;SHT30;54349;52.528;19.760;2023-03-23T14:22:33;23.90;36.66
67502;SHT30;54349;52.528;19.760;2023-03-23T14:25:16;23.81;36.95
67502;SHT30;54349;52.528;19.760;2023-03-23T14:27:47;23.72;37.33
67502;SHT30;54349;52.528;19.760;2023-03-23T14:30:15;23.66;37.47
67502;SHT30;54349;52.528;19.760;2023-03-23T14:32:49;23.63;38.27
67502;SHT30;54349;52.528;19.760;2023-03-23T14:37:55;23.58;38.37
67502;SHT30;54349;52.528;19.760;2023-03-23T14:40:28;23.52;38.27
67502;SHT30;54349;52.528;19.760;2023-03-23T14:42:56;23.49;38.96
67502;SHT30;54349;52.528;19.760;2023-03-23T14:45:26;23.49;39.40
67502;SHT30;54349;52.528;19.760;2023-03-23T14:48:00;23.50;39.46
67502;SHT30;54349;52.528;19.760;2023-03-23T14:53:09;23.44;39.20
67502;SHT30;54349;52.528;19.760;2023-03-23T14:55:46;23.41;39.38
67502;SHT30;54349;52.528;19.760;2023-03-23T14:58:16;23.37;39.32
67502;SHT30;54349;52.528;19.760;2023-03-23T15:00:52;23.30;39.51
67502;SHT30;54349;52.528;19.760;2023-03-23T15:03:27;23.26;39.69
67502;SHT30;54349;52.528;19.760;2023-03-23T15:06:03;23.24;40.14
67502;SHT30;54349;52.528;19.760;2023-03-23T15:08:40;23.23;40.85
67502;SHT30;54349;52.528;19.760;2023-03-23T15:13:49;23.26;42.00
67502;SHT30;54349;52.528;19.760;2023-03-23T15:16:26;23.28;42.16
67502;SHT30;54349;52.528;19.760;2023-03-23T15:19:02;23.30;42.48
67502;SHT30;54349;52.528;19.760;2023-03-23T15:21:49;23.31;42.62
67502;SHT30;54349;52.528;19.760;2023-03-23T15:24:43;23.34;42.78
67502;SHT30;54349;52.528;19.760;2023-03-23T15:27:12;23.34;42.87
67502;SHT30;54349;52.528;19.760;2023-03-23T15:29:52;23.37;42.82
67502;SHT30;54349;52.528;19.760;2023-03-23T15:35:13;23.39;43.15
67502;SHT30;54349;52.528;19.760;2023-03-23T15:37:52;23.42;43.41
67502;SHT30;54349;52.528;19.760;2023-03-23T15:40:26;23.46;43.68
67502;SHT30;54349;52.528;19.760;2023-03-23T15:43:07;23.48;43.88
67502;SHT30;54349;52.528;19.760;2023-03-23T15:51:19;23.57;44.12
67502;SHT30;54349;52.528;19.760;2023-03-23T15:53:49;23.58;44.16
67502;SHT30;54349;52.528;19.760;2023-03-23T15:56:20;23.61;44.16
67502;SHT30;54349;52.528;19.760;2023-03-23T15:58:48;23.64;44.16
67502;SHT30;54349;52.528;19.760;2023-03-23T16:01:18;23.65;44.13
67502;SHT30;54349;52.528;19.760;2023-03-23T16:03:58;23.67;44.07
67502;SHT30;54349;52.528;19.760;2023-03-23T16:06:33;23.70;44.02
67502;SHT30;54349;52.528;19.760;2023-03-23T16:09:03;23.70;43.99
67502;SHT30;54349;52.528;19.760;2023-03-23T16:11:37;23.72;43.96
67502;SHT30;54349;52.528;19.760;2023-03-23T16:14:06;23.74;43.90
67502;SHT30;54349;52.528;19.760;2023-03-23T16:16:36;23.75;43.86
67502;SHT30;54349;52.528;19.760;2023-03-23T16:19:17;23.76;43.81
67502;SHT30;54349;52.528;19.760;2023-03-23T16:21:53;23.78;43.75
67502;SHT30;54349;52.528;19.760;2023-03-23T16:24:22;23.79;43.67
67502;SHT30;54349;52.528;19.760;2023-03-23T16:26:50;23.80;43.68
67502;SHT30;54349;52.528;19.760;2023-03-23T16:29:20;23.81;43.72
67502;SHT30;54349;52.528;19.760;2023-03-23T16:32:10;23.83;43.78
67502;SHT30;54349;52.528;19.760;2023-03-23T16:34:40;23.84;43.78
67502;SHT30;54349;52.528;19.760;2023-03-23T16:37:10;23.86;43.79
67502;SHT30;54349;52.528;19.760;2023-03-23T16:39:39;23.88;43.75
67502;SHT30;54349;52.528;19.760;2023-03-23T16:42:08;23.89;43.67
67502;SHT30;54349;52.528;19.760;2023-03-23T16:44:37;23.91;43.37
67502;SHT30;54349;52.528;19.760;2023-03-23T16:47:05;23.93;43.30
67502;SHT30;54349;52.528;19.760;2023-03-23T16:49:34;23.93;42.83
67502;SHT30;54349;52.528;19.760;2023-03-23T16:52:05;23.92;42.49
67502;SHT30;54349;52.528;19.760;2023-03-23T16:54:34;23.89;42.16
67502;SHT30;54349;52.528;19.760;2023-03-23T16:57:04;23.86;41.88
67502;SHT30;54349;52.528;19.760;2023-03-23T16:59:36;23.82;41.78
67502;SHT30;54349;52.528;19.760;2023-03-23T17:02:05;23.80;41.67
67502;SHT30;54349;52.528;19.760;2023-03-23T17:04:34;23.76;41.51
67502;SHT30;54349;52.528;19.760;2023-03-23T17:07:03;23.72;41.42
67502;SHT30;54349;52.528;19.760;2023-03-23T17:09:32;23.68;41.32
67502;SHT30;54349;52.528;19.760;2023-03-23T17:12:00;23.64;41.27
67502;SHT30;54349;52.528;19.760;2023-03-23T17:14:28;23.59;41.19
67502;SHT30;54349;52.528;19.760;2023-03-23T17:16:57;23.55;41.08
67502;SHT30;54349;52.528;19.760;2023-03-23T17:19:25;23.49;41.03
67502;SHT30;54349;52.528;19.760;2023-03-23T17:21:55;23.44;40.93
67502;SHT30;54349;52.528;19.760;2023-03-23T17:24:24;23.39;40.95
67502;SHT30;54349;52.528;19.760;2023-03-23T17:26:54;23.36;41.06
67502;SHT30;54349;52.528;19.760;2023-03-23T17:29:23;23.32;41.04
67502;SHT30;54349;52.528;19.760;2023-03-23T17:31:51;23.28;40.95
67502;SHT30;54349;52.528;19.760;2023-03-23T17:34:20;23.24;41.00
67502;SHT30;54349;52.528;19.760;2023-03-23T17:36:48;23.21;40.92
67502;SHT30;54349;52.528;19.760;2023-03-23T17:39:17;23.16;41.07
67502;SHT30;54349;52.528;19.760;2023-03-23T17:41:45;23.16;41.08
67502;SHT30;54349;52.528;19.760;2023-03-23T17:44:14;23.14;41.04
67502;SHT30;54349;52.528;19.760;2023-03-23T17:46:43;23.11;41.07
67502;SHT30;54349;52.528;19.760;2023-03-23T17:49:11;23.10;41.07
67502;SHT30;54349;52.528;19.760;2023-03-23T17:51:40;23.07;41.05
67502;SHT30;54349;52.528;19.760;2023-03-23T17:54:10;23.04;41.06
67502;SHT30;54349;52.528;19.760;2023-03-23T17:56:38;22.99;41.12
67502;SHT30;54349;52.528;19.760;2023-03-23T17:59:07;22.97;41.13
67502;SHT30;54349;52.528;19.760;2023-03-23T18:01:37;22.94;41.24